Time;durP1;ratioP1;P1;durP2;ratioP2;P2;SDS_P1;SDS_P2;PMS_P1;PMS_P2;Temp;Humidity;BMP_temperature;BMP_pressure;BME280_temperature;BME280_humidity;BME280_pressure;Samples;Min_cycle;Max_cycle;Signal;HPM_P1;HPM_P2
2024/01/31 00:02:22;;;;;;;5.78;0.90;;;;;;;3.94;89.39;102240.63;4987024;28;20046;-61
2024/01/31 00:04:50;;;;;;;3.90;0.63;;;;;;;3.95;89.15;102230.47;4988679;28;20046;-62
2024/01/31 00:07:17;;;;;;;1.23;0.50;;;;;;;3.94;89.22;102229.66;4978158;28;20050;-61
2024/01/31 00:09:45;;;;;;;8.80;1.00;;;;;;;3.95;89.31;102230.47;4989424;28;20932;-61
2024/01/31 00:12:12;;;;;;;3.58;0.50;;;;;;;3.93;89.10;102217.03;4977221;28;20408;-62
2024/01/31 00:14:39;;;;;;;1.95;0.80;;;;;;;3.92;88.86;102231.81;4952388;28;20051;-61
2024/01/31 00:17:07;;;;;;;2.17;0.80;;;;;;;3.92;88.91;102222.81;4983997;28;20050;-61
2024/01/31 00:19:34;;;;;;;1.05;0.82;;;;;;;3.91;89.31;102221.97;4975878;28;20047;-62
2024/01/31 00:22:02;;;;;;;3.00;0.60;;;;;;;3.92;88.81;102209.09;4967469;28;20059;-61
2024/01/31 00:24:29;;;;;;;6.40;0.80;;;;;;;3.93;89.21;102214.31;4978714;28;20053;-62
2024/01/31 00:26:56;;;;;;;2.92;0.63;;;;;;;3.97;89.11;102211.88;4986439;28;20050;-62
2024/01/31 00:29:23;;;;;;;6.03;1.02;;;;;;;3.97;89.05;102207.19;4972417;28;20071;-61
2024/01/31 00:31:51;;;;;;;5.25;0.77;;;;;;;3.99;89.05;102205.03;4985616;28;20064;-61
2024/01/31 00:34:18;;;;;;;8.85;0.95;;;;;;;4.01;89.42;102194.63;4985488;28;20045;-61
2024/01/31 00:36:46;;;;;;;2.38;0.70;;;;;;;4.04;89.14;102212.44;4988907;28;20058;-62
2024/01/31 00:39:14;;;;;;;5.90;0.85;;;;;;;4.08;89.17;102208.06;4989486;28;20046;-61
2024/01/31 00:41:41;;;;;;;3.47;1.40;;;;;;;4.09;89.35;102201.50;4989311;28;20055;-61
2024/01/31 00:44:08;;;;;;;4.65;0.88;;;;;;;4.09;89.06;102204.25;4989040;28;20057;-61
2024/01/31 00:46:41;;;;;;;3.83;0.80;;;;;;;4.09;89.06;102199.59;4989276;28;20046;-61
2024/01/31 00:49:08;;;;;;;1.13;0.38;;;;;;;4.08;89.08;102200.69;4977285;28;20051;-61
2024/01/31 00:51:36;;;;;;;9.10;1.10;;;;;;;4.06;89.09;102197.38;4983392;28;20416;-62
2024/01/31 00:54:03;;;;;;;5.35;2.20;;;;;;;4.05;89.27;102186.69;4988988;28;20038;-62
2024/01/31 00:56:31;;;;;;;2.95;0.70;;;;;;;4.02;89.15;102188.06;4977938;28;20145;-61
2024/01/31 00:59:00;;;;;;;1.88;0.50;;;;;;;4.01;89.31;102180.09;4988771;28;20054;-61
2024/01/31 01:01:27;;;;;;;1.50;0.95;;;;;;;3.98;89.51;102181.44;4988474;28;20409;-62
2024/01/31 01:03:55;;;;;;;2.35;0.95;;;;;;;3.97;89.05;102185.28;4988328;28;20046;-64
2024/01/31 01:06:23;;;;;;;3.30;0.50;;;;;;;3.95;89.13;102179.25;4967763;28;20054;-61
2024/01/31 01:08:50;;;;;;;4.60;0.93;;;;;;;3.91;89.16;102172.66;4982968;28;20069;-61
2024/01/31 01:11:18;;;;;;;8.55;1.42;;;;;;;3.90;89.41;102162.78;4970477;28;20054;-61
2024/01/31 01:13:47;;;;;;;5.10;1.48;;;;;;;3.89;89.24;102171.28;4975438;28;20051;-61
2024/01/31 01:16:14;;;;;;;1.50;0.50;;;;;;;3.88;89.27;102169.63;4976298;28;20054;-61
2024/01/31 01:18:41;;;;;;;2.30;0.70;;;;;;;3.88;89.19;102180.56;4976980;28;20062;-61
2024/01/31 01:21:09;;;;;;;5.28;0.90;;;;;;;3.89;89.40;102169.34;4972270;28;20050;-61
2024/01/31 01:23:36;;;;;;;1.23;0.85;;;;;;;3.88;89.26;102164.97;4975388;28;20042;-61
2024/01/31 01:26:03;;;;;;;1.60;0.90;;;;;;;3.87;89.67;102157.81;4985999;28;20039;-61
2024/01/31 01:28:31;;;;;;;2.90;0.63;;;;;;;3.88;89.52;102148.53;4976617;28;20057;-61
2024/01/31 01:30:58;;;;;;;4.25;0.88;;;;;;;3.89;89.71;102128.25;4968057;28;20050;-61
2024/01/31 01:33:26;;;;;;;9.40;0.93;;;;;;;3.91;89.42;102128.00;4975013;28;20054;-62
2024/01/31 01:35:53;;;;;;;1.90;0.55;;;;;;;3.93;89.37;102128.53;4972836;28;20042;-61
2024/01/31 01:38:21;;;;;;;5.25;0.75;;;;;;;3.95;89.34;102116.22;4976952;28;20830;-61
2024/01/31 01:40:48;;;;;;;3.20;1.00;;;;;;;3.96;89.15;102106.09;4987193;28;20054;-61
2024/01/31 01:43:18;;;;;;;0.52;0.40;;;;;;;3.95;89.23;102105.25;4966371;28;20060;-62
2024/01/31 01:45:46;;;;;;;3.33;0.80;;;;;;;3.96;89.11;102101.44;4964942;28;20446;-62
2024/01/31 01:48:17;;;;;;;4.45;0.95;;;;;;;3.96;89.05;102095.97;4975138;28;20062;-61
2024/01/31 01:50:45;;;;;;;4.20;1.27;;;;;;;3.98;89.14;102096.50;4970374;28;20049;-62
2024/01/31 01:53:13;;;;;;;4.43;1.50;;;;;;;3.98;89.32;102087.47;4973599;28;20071;-62
2024/01/31 01:55:42;;;;;;;2.22;0.43;;;;;;;3.99;89.03;102089.13;4968399;28;20517;-61
2024/01/31 01:58:11;;;;;;;1.52;1.00;;;;;;;3.98;89.23;102088.28;4957703;28;20046;-61
2024/01/31 02:00:40;;;;;;;1.40;0.63;;;;;;;4.00;89.23;102074.31;4970697;28;20420;-63
2024/01/31 02:03:08;;;;;;;3.45;0.65;;;;;;;4.03;89.23;102084.72;4958595;28;20144;-61
2024/01/31 02:05:38;;;;;;;4.63;1.00;;;;;;;4.06;89.07;102074.06;4971287;28;20051;-61
2024/01/31 02:08:06;;;;;;;2.35;0.47;;;;;;;4.09;89.40;102078.19;4980458;28;20573;-62
2024/01/31 02:10:34;;;;;;;4.93;1.75;;;;;;;4.14;89.41;102081.75;4969467;28;20065;-61
2024/01/31 02:13:02;;;;;;;4.00;0.60;;;;;;;4.17;89.49;102081.22;4969330;28;20501;-62
2024/01/31 02:15:29;;;;;;;1.48;0.50;;;;;;;4.21;89.13;102084.22;4969730;28;20524;-61
2024/01/31 02:17:57;;;;;;;2.13;0.40;;;;;;;4.24;89.29;102092.75;4983042;28;20050;-61
2024/01/31 02:20:24;;;;;;;1.42;0.57;;;;;;;4.28;89.29;102082.09;4969763;28;20059;-62
2024/01/31 02:22:52;;;;;;;3.35;1.55;;;;;;;4.31;89.56;102076.84;4972683;28;20049;-61
2024/01/31 02:25:20;;;;;;;3.65;0.60;;;;;;;4.34;89.30;102093.88;4966049;28;20047;-62
2024/01/31 02:27:47;;;;;;;5.75;0.68;;;;;;;4.38;89.43;102092.22;4971891;28;20047;-62
2024/01/31 02:30:15;;;;;;;5.13;0.65;;;;;;;4.41;89.46;102102.66;4960622;28;20078;-62
2024/01/31 02:32:43;;;;;;;3.63;0.93;;;;;;;4.43;89.49;102093.06;4971197;28;20058;-63
2024/01/31 02:35:10;;;;;;;3.08;0.77;;;;;;;4.47;89.05;102094.19;4976404;28;20568;-62
2024/01/31 02:37:42;;;;;;;3.88;0.63;;;;;;;4.49;89.30;102083.75;4977294;28;20059;-62
2024/01/31 02:40:12;;;;;;;3.45;0.50;;;;;;;4.52;89.27;102077.75;4982613;28;20046;-63
2024/01/31 02:42:39;;;;;;;3.00;0.50;;;;;;;4.55;89.17;102070.88;4977130;28;20077;-61
2024/01/31 02:45:07;;;;;;;3.78;0.55;;;;;;;4.56;89.31;102064.28;4966963;28;20050;-62
2024/01/31 02:47:34;;;;;;;4.97;0.77;;;;;;;4.57;89.10;102068.69;4971165;28;20396;-62
2024/01/31 02:50:03;;;;;;;1.67;0.60;;;;;;;4.58;89.26;102073.88;4973784;28;20055;-61
2024/01/31 02:52:30;;;;;;;6.60;1.05;;;;;;;4.59;89.30;102066.50;4966507;28;20034;-61
2024/01/31 02:54:58;;;;;;;3.10;0.40;;;;;;;4.59;89.19;102050.03;4966728;28;20050;-62
2024/01/31 02:57:25;;;;;;;6.07;0.70;;;;;;;4.59;89.35;102053.59;4946385;28;20070;-62
2024/01/31 02:59:53;;;;;;;2.58;0.73;;;;;;;4.60;89.32;102037.97;4979554;28;20738;-62
2024/01/31 03:02:20;;;;;;;7.57;0.90;;;;;;;4.59;89.46;102037.16;5035913;23;20055;-61
2024/01/31 03:04:47;;;;;;;5.45;0.77;;;;;;;4.61;89.52;102031.38;4966605;28;20054;-62
2024/01/31 03:07:15;;;;;;;2.67;0.80;;;;;;;4.63;89.38;102012.75;4967868;28;20058;-61
2024/01/31 03:09:43;;;;;;;1.85;0.85;;;;;;;4.64;89.26;102008.88;4966945;28;20046;-63
2024/01/31 03:12:11;;;;;;;1.88;0.68;;;;;;;4.64;89.47;102008.88;4966647;28;20142;-62
2024/01/31 03:14:40;;;;;;;2.38;0.80;;;;;;;4.65;89.35;102005.88;4966195;28;20066;-61
2024/01/31 03:17:07;;;;;;;5.40;0.73;;;;;;;4.66;89.54;101993.00;4954653;28;20051;-61
2024/01/31 03:19:37;;;;;;;4.68;1.67;;;;;;;4.69;89.46;101984.19;4967282;28;20050;-62
2024/01/31 03:22:05;;;;;;;2.10;0.70;;;;;;;4.69;89.58;101973.22;4967034;28;20155;-63
2024/01/31 03:24:32;;;;;;;4.32;1.42;;;;;;;4.70;89.66;101980.38;4966937;28;20046;-61
2024/01/31 03:27:00;;;;;;;6.28;2.50;;;;;;;4.72;89.66;101994.63;4967108;28;20058;-61
2024/01/31 03:29:27;;;;;;;2.38;0.57;;;;;;;4.75;89.39;102002.31;4969734;28;20536;-62
2024/01/31 03:31:55;;;;;;;3.83;0.60;;;;;;;4.76;89.68;101995.72;4953250;28;20621;-62
2024/01/31 03:34:22;;;;;;;6.68;1.00;;;;;;;4.79;89.47;101985.00;4953110;28;20431;-61
2024/01/31 03:36:49;;;;;;;2.70;0.63;;;;;;;4.82;89.59;101978.13;4970693;28;20050;-62
2024/01/31 03:39:18;;;;;;;2.83;0.60;;;;;;;4.83;89.39;101974.31;4953763;28;20054;-62
2024/01/31 03:41:46;;;;;;;11.07;1.23;;;;;;;4.84;89.29;101956.75;4970260;28;20046;-62
2024/01/31 03:44:13;;;;;;;4.32;0.73;;;;;;;4.84;89.36;101943.84;4970775;28;20051;-62
2024/01/31 03:46:41;;;;;;;5.47;1.15;;;;;;;4.86;89.78;101957.31;4970615;28;20054;-62
2024/01/31 03:49:09;;;;;;;4.47;0.60;;;;;;;4.87;89.65;101950.72;4971149;28;20047;-62
2024/01/31 03:51:36;;;;;;;9.43;1.08;;;;;;;4.89;89.34;101945.78;4968133;28;20055;-63
2024/01/31 03:54:04;;;;;;;0.90;0.40;;;;;;;4.90;89.43;101930.94;4970579;28;20065;-61
2024/01/31 03:56:31;;;;;;;2.20;1.15;;;;;;;4.90;89.62;101923.53;4970255;28;20058;-64
2024/01/31 03:58:58;;;;;;;1.55;0.68;;;;;;;4.92;89.30;101913.09;4971186;28;20050;-62
2024/01/31 04:01:26;;;;;;;3.50;0.65;;;;;;;4.95;89.46;101916.41;4969835;28;20058;-62
2024/01/31 04:03:53;;;;;;;7.25;2.05;;;;;;;4.95;89.70;101917.19;4970517;28;20054;-62
2024/01/31 04:06:21;;;;;;;2.88;0.60;;;;;;;4.96;89.57;101916.09;4967660;28;20971;-61
2024/01/31 04:08:49;;;;;;;5.00;1.55;;;;;;;4.97;89.49;101909.53;4970156;28;20046;-62
2024/01/31 04:11:16;;;;;;;3.05;0.57;;;;;;;4.99;89.29;101911.97;4970492;28;20408;-62
2024/01/31 04:13:44;;;;;;;3.42;0.50;;;;;;;5.01;89.38;101887.81;4969735;28;20253;-63
2024/01/31 04:16:16;;;;;;;8.18;1.38;;;;;;;5.02;89.50;101889.47;4969588;28;20417;-62
2024/01/31 04:18:45;;;;;;;3.15;0.70;;;;;;;5.02;89.58;101873.84;4970673;28;20082;-62
2024/01/31 04:21:20;;;;;;;4.72;0.40;;;;;;;5.05;89.38;101875.19;4970765;28;20097;-61
2024/01/31 04:23:48;;;;;;;5.00;0.40;;;;;;;5.06;89.47;101863.09;4969925;28;20053;-62
2024/01/31 04:26:16;;;;;;;18.50;1.77;;;;;;;5.07;89.48;101864.75;4953229;28;20050;-62
2024/01/31 04:28:43;;;;;;;8.32;0.80;;;;;;;5.08;89.51;101861.75;4969085;28;20050;-62
2024/01/31 04:31:14;;;;;;;3.50;0.63;;;;;;;5.06;89.50;101841.97;4969225;28;20046;-62
2024/01/31 04:33:43;;;;;;;6.93;0.88;;;;;;;5.08;89.22;101856.25;4969789;28;20055;-62
2024/01/31 04:36:10;;;;;;;1.50;0.90;;;;;;;5.11;89.44;101846.63;4969982;28;20051;-62
2024/01/31 04:38:38;;;;;;;3.30;0.60;;;;;;;5.11;89.51;101830.97;4969882;28;20050;-61
2024/01/31 04:41:05;;;;;;;8.07;0.57;;;;;;;5.11;89.40;101850.16;4969448;28;20058;-61
2024/01/31 04:43:33;;;;;;;8.95;0.70;;;;;;;5.12;89.35;101829.03;4969035;28;20063;-61
2024/01/31 04:46:00;;;;;;;3.22;0.95;;;;;;;5.13;89.35;101819.72;4969375;28;20058;-62
2024/01/31 04:48:27;;;;;;;8.38;1.42;;;;;;;5.15;89.23;101829.31;4969231;28;20578;-62
2024/01/31 04:50:55;;;;;;;10.43;2.00;;;;;;;5.15;89.49;101823.81;4959167;28;20057;-63
2024/01/31 04:53:22;;;;;;;2.28;0.75;;;;;;;5.17;89.46;101820.78;4969673;28;20050;-61
2024/01/31 04:55:49;;;;;;;2.17;0.60;;;;;;;5.17;89.63;101827.09;4968724;28;20051;-62
2024/01/31 04:58:17;;;;;;;5.57;0.57;;;;;;;5.18;89.45;101830.66;4968962;28;20043;-62
2024/01/31 05:00:45;;;;;;;1.35;0.95;;;;;;;5.18;89.30;101817.75;4969022;28;20049;-62
2024/01/31 05:03:13;;;;;;;1.00;0.40;;;;;;;5.17;89.54;101810.63;4969174;28;20065;-61
2024/01/31 05:05:40;;;;;;;2.88;0.60;;;;;;;5.17;89.59;101807.06;4969130;28;20928;-62
2024/01/31 05:08:08;;;;;;;8.00;0.80;;;;;;;5.17;89.37;101810.63;4969858;28;20065;-61
2024/01/31 05:10:36;;;;;;;3.75;1.17;;;;;;;5.18;89.59;101790.31;4965923;28;20071;-62
2024/01/31 05:13:04;;;;;;;1.58;0.40;;;;;;;5.20;89.57;101790.00;4968385;28;20061;-62
2024/01/31 05:15:31;;;;;;;5.43;0.70;;;;;;;5.20;89.58;101782.59;4968224;28;20119;-62
2024/01/31 05:17:59;;;;;;;3.58;0.75;;;;;;;5.22;89.72;101769.41;4968508;28;20059;-61
2024/01/31 05:20:29;;;;;;;2.35;0.40;;;;;;;5.21;89.37;101770.53;4968896;28;20062;-62
2024/01/31 05:22:56;;;;;;;12.77;2.30;;;;;;;5.20;89.93;101757.91;4969169;28;20513;-62
2024/01/31 05:25:24;;;;;;;1.02;0.40;;;;;;;5.19;89.68;101756.25;4969554;28;20073;-62
2024/01/31 05:27:52;;;;;;;4.22;0.75;;;;;;;5.21;89.83;101737.59;4951685;28;20054;-62
2024/01/31 05:30:19;;;;;;;3.95;0.55;;;;;;;5.23;90.04;101740.88;4968334;28;20385;-62
2024/01/31 05:32:46;;;;;;;1.98;1.75;;;;;;;5.24;89.81;101745.22;4969422;28;20059;-62
2024/01/31 05:35:14;;;;;;;1.13;0.40;;;;;;;5.27;89.88;101728.19;4968536;28;20066;-62
2024/01/31 05:37:42;;;;;;;2.05;0.90;;;;;;;5.28;89.99;101724.34;4968177;28;20537;-62
2024/01/31 05:40:11;;;;;;;5.80;0.75;;;;;;;5.27;89.88;101717.22;4968327;28;20378;-62
2024/01/31 05:42:39;;;;;;;3.38;1.00;;;;;;;5.29;89.84;101716.94;4968784;28;20412;-62
2024/01/31 05:45:07;;;;;;;4.47;0.80;;;;;;;5.29;90.01;101719.69;4968398;28;20046;-62
2024/01/31 05:47:35;;;;;;;4.38;1.20;;;;;;;5.28;89.69;101702.38;4966768;28;20054;-62
2024/01/31 05:50:03;;;;;;;6.63;1.15;;;;;;;5.28;89.80;101688.66;4968159;28;20486;-62
2024/01/31 05:52:30;;;;;;;3.78;0.90;;;;;;;5.31;90.06;101687.25;4967325;28;20416;-63
2024/01/31 05:54:57;;;;;;;5.05;0.80;;;;;;;5.33;89.90;101690.53;4968610;28;20045;-62
2024/01/31 05:57:25;;;;;;;17.05;1.58;;;;;;;5.33;89.95;101674.88;4968353;28;20058;-65
2024/01/31 05:59:52;;;;;;;14.60;1.27;;;;;;;5.36;89.79;101671.56;4966963;28;20047;-62
2024/01/31 06:02:19;;;;;;;2.40;0.50;;;;;;;5.37;89.80;101664.97;4967206;28;20043;-62
2024/01/31 06:04:47;;;;;;;1.85;0.50;;;;;;;5.38;89.99;101663.03;4955764;28;20062;-62
2024/01/31 06:07:14;;;;;;;1.83;0.57;;;;;;;5.37;90.09;101651.25;4967724;28;20047;-62
2024/01/31 06:09:41;;;;;;;15.07;2.10;;;;;;;5.39;89.85;101654.53;4959713;28;20046;-62
2024/01/31 06:12:09;;;;;;;6.85;0.70;;;;;;;5.42;90.00;101648.47;4967367;28;20066;-62
2024/01/31 06:14:37;;;;;;;1.05;0.30;;;;;;;5.44;90.10;101653.66;4968187;28;20050;-62
2024/01/31 06:17:04;;;;;;;3.63;1.90;;;;;;;5.46;89.94;101648.69;4967417;28;20054;-62
2024/01/31 06:19:31;;;;;;;2.90;0.70;;;;;;;5.47;89.89;101645.66;4968302;28;20468;-62
2024/01/31 06:21:59;;;;;;;2.47;0.65;;;;;;;5.48;90.01;101635.50;4966793;28;20157;-62
2024/01/31 06:24:26;;;;;;;6.10;1.17;;;;;;;5.50;89.97;101636.03;4967902;28;20047;-63
2024/01/31 06:26:53;;;;;;;2.20;0.60;;;;;;;5.50;90.04;101625.03;4968047;28;20055;-62
2024/01/31 06:29:21;;;;;;;4.28;0.57;;;;;;;5.51;90.00;101624.72;4968205;28;20046;-62
2024/01/31 06:31:48;;;;;;;3.85;0.63;;;;;;;5.52;90.08;101626.38;4966962;28;20061;-62
2024/01/31 06:34:16;;;;;;;3.33;0.73;;;;;;;5.54;89.93;101624.16;4969057;28;20043;-62
2024/01/31 06:36:45;;;;;;;5.07;0.88;;;;;;;5.57;89.82;101610.94;4967642;28;20074;-62
2024/01/31 06:39:12;;;;;;;3.35;0.70;;;;;;;5.58;90.10;101607.94;4968046;28;20405;-61
2024/01/31 06:41:39;;;;;;;5.25;0.80;;;;;;;5.61;90.02;101606.53;4967462;28;20057;-62
2024/01/31 06:44:07;;;;;;;10.48;1.40;;;;;;;5.61;90.29;101601.03;4967646;28;20066;-62
2024/01/31 06:46:34;;;;;;;4.68;0.40;;;;;;;5.62;89.98;101611.72;4968067;28;20704;-62
2024/01/31 06:49:01;;;;;;;8.48;1.55;;;;;;;5.65;89.89;101602.06;4967729;28;20828;-62
2024/01/31 06:51:29;;;;;;;4.18;0.63;;;;;;;5.65;90.13;101591.09;4959986;28;20049;-62
2024/01/31 06:53:58;;;;;;;6.13;0.70;;;;;;;5.66;90.24;101581.75;4967440;28;20062;-62
2024/01/31 06:56:26;;;;;;;3.00;1.05;;;;;;;5.66;90.29;101592.72;4966490;28;20072;-63
2024/01/31 06:58:55;;;;;;;1.50;0.60;;;;;;;5.65;90.22;101589.16;4967471;28;20063;-62
2024/01/31 07:01:22;;;;;;;2.30;0.80;;;;;;;5.67;90.08;101600.66;4967482;28;20069;-62
2024/01/31 07:03:50;;;;;;;3.33;0.57;;;;;;;5.68;90.37;101596.00;4959543;28;20039;-61
2024/01/31 07:06:18;;;;;;;10.52;0.77;;;;;;;5.68;90.34;101591.31;4966780;28;20704;-62
2024/01/31 07:08:46;;;;;;;10.05;0.88;;;;;;;5.71;90.34;101589.91;4967096;28;20776;-62
2024/01/31 07:11:13;;;;;;;1.65;0.57;;;;;;;5.74;90.34;101608.56;4967488;28;20042;-61
2024/01/31 07:13:41;;;;;;;3.17;0.68;;;;;;;5.76;90.23;101578.88;4967498;28;20050;-62
2024/01/31 07:16:09;;;;;;;4.82;0.90;;;;;;;5.77;90.37;101577.78;4959353;28;20404;-62
2024/01/31 07:18:41;;;;;;;7.35;0.70;;;;;;;5.79;90.30;101587.34;4963446;28;20042;-62
2024/01/31 07:21:10;;;;;;;9.35;1.15;;;;;;;5.82;90.18;101583.19;4959813;28;20058;-62
2024/01/31 07:23:41;;;;;;;7.10;0.60;;;;;;;5.85;90.16;101563.41;4966793;28;20047;-62
2024/01/31 07:26:08;;;;;;;4.22;0.55;;;;;;;5.87;90.37;101562.00;4966621;28;20579;-62
2024/01/31 07:28:39;;;;;;;9.38;0.63;;;;;;;5.90;90.28;101566.94;4966995;28;20046;-62
2024/01/31 07:31:06;;;;;;;2.67;0.70;;;;;;;5.90;90.07;101557.84;4966483;28;20428;-62
2024/01/31 07:33:34;;;;;;;1.08;0.63;;;;;;;5.91;90.25;101549.31;4965485;28;20053;-62
2024/01/31 07:36:02;;;;;;;7.05;0.60;;;;;;;5.91;90.23;101538.31;4966373;28;20042;-62
2024/01/31 07:38:30;;;;;;;3.38;0.63;;;;;;;5.93;90.33;101532.53;4961970;28;20046;-62
2024/01/31 07:40:57;;;;;;;1.65;0.60;;;;;;;5.92;90.17;101508.91;4967485;28;20047;-62
2024/01/31 07:43:25;;;;;;;5.18;0.85;;;;;;;5.93;90.37;101535.28;4967488;28;20046;-62
2024/01/31 07:45:53;;;;;;;4.30;0.98;;;;;;;5.91;90.45;101530.06;4966856;28;20767;-61
2024/01/31 07:48:20;;;;;;;2.00;0.73;;;;;;;5.90;90.24;101533.94;4967207;28;20066;-61
2024/01/31 07:50:47;;;;;;;3.70;0.82;;;;;;;5.91;90.42;101548.47;4966872;28;20063;-61
2024/01/31 07:53:15;;;;;;;5.57;0.90;;;;;;;5.89;90.55;101542.47;4967474;28;20039;-61
2024/01/31 07:55:42;;;;;;;2.58;0.60;;;;;;;5.89;90.29;101536.97;4967144;28;20051;-61
2024/01/31 07:58:09;;;;;;;11.00;0.93;;;;;;;5.88;90.59;101533.41;4967445;28;20412;-61
2024/01/31 08:00:37;;;;;;;7.82;1.67;;;;;;;5.88;90.60;101513.34;4966530;28;20062;-61
2024/01/31 08:03:04;;;;;;;2.60;1.10;;;;;;;5.89;90.69;101518.56;4967268;28;20531;-61
2024/01/31 08:05:32;;;;;;;0.93;0.50;;;;;;;5.91;90.75;101519.06;4966968;28;20047;-62
2024/01/31 08:07:59;;;;;;;1.88;0.50;;;;;;;5.93;90.60;101535.28;4965271;28;20357;-61
2024/01/31 08:10:27;;;;;;;6.03;0.75;;;;;;;5.95;90.73;101520.13;4966062;28;20051;-62
2024/01/31 08:12:54;;;;;;;3.15;0.50;;;;;;;5.96;91.04;101509.94;4966357;28;20055;-61
2024/01/31 08:15:22;;;;;;;6.43;1.52;;;;;;;5.96;90.95;101519.00;4969294;28;20085;-61
2024/01/31 08:17:49;;;;;;;1.00;0.60;;;;;;;5.99;90.91;101539.56;4970258;28;20055;-62
2024/01/31 08:20:17;;;;;;;3.45;0.52;;;;;;;5.99;90.81;101525.84;4970656;28;20129;-61
2024/01/31 08:22:45;;;;;;;5.05;0.77;;;;;;;6.02;91.08;101514.25;4970078;28;20066;-61
2024/01/31 08:25:12;;;;;;;6.78;1.05;;;;;;;6.03;90.80;101522.22;4968994;28;20055;-61
2024/01/31 08:27:40;;;;;;;4.88;0.80;;;;;;;6.06;90.80;101520.81;4968227;28;20043;-61
2024/01/31 08:30:08;;;;;;;6.47;1.25;;;;;;;6.06;90.92;101531.81;4970897;28;20058;-60
2024/01/31 08:32:35;;;;;;;5.82;1.02;;;;;;;6.08;90.90;101513.09;4971217;28;20043;-63
2024/01/31 08:35:03;;;;;;;4.45;1.27;;;;;;;6.08;90.93;101513.91;4969897;28;20056;-62
2024/01/31 08:37:31;;;;;;;2.40;0.45;;;;;;;6.12;91.03;101497.63;4970007;28;20043;-61
2024/01/31 08:39:58;;;;;;;4.15;0.70;;;;;;;6.13;91.13;101518.50;4969017;28;20070;-60
2024/01/31 08:42:28;;;;;;;2.53;0.90;;;;;;;6.16;90.93;101506.09;4970207;28;20062;-62
2024/01/31 08:44:56;;;;;;;8.20;0.77;;;;;;;6.19;91.03;101492.59;4968086;28;20412;-61
2024/01/31 08:47:24;;;;;;;7.97;3.17;;;;;;;6.20;90.93;101461.19;4969477;28;20043;-61
2024/01/31 08:49:51;;;;;;;3.45;0.80;;;;;;;6.24;91.02;101450.44;4969764;28;20054;-60
2024/01/31 08:52:18;;;;;;;6.88;1.60;;;;;;;6.27;91.00;101425.91;4970762;28;20039;-61
2024/01/31 08:54:46;;;;;;;8.27;1.10;;;;;;;6.29;91.00;101401.69;4952536;28;20058;-61
2024/01/31 08:57:13;;;;;;;3.95;0.85;;;;;;;6.32;90.84;101401.09;4970627;28;20531;-61
2024/01/31 08:59:44;;;;;;;5.55;0.63;;;;;;;6.34;91.05;101382.34;4969585;28;20393;-61
2024/01/31 09:02:12;;;;;;;4.13;0.70;;;;;;;6.37;91.07;101368.00;4969302;28;20146;-61
2024/01/31 09:04:39;;;;;;;3.60;1.85;;;;;;;6.40;91.10;101370.16;4969759;28;20047;-61
2024/01/31 09:07:07;;;;;;;4.38;1.02;;;;;;;6.42;91.06;101369.81;4952321;28;20066;-62
2024/01/31 09:09:38;;;;;;;9.98;1.75;;;;;;;6.46;91.05;101401.91;4968019;28;20043;-61
2024/01/31 09:12:06;;;;;;;5.60;0.75;;;;;;;6.50;90.78;101386.47;4970408;28;20066;-61
2024/01/31 09:14:35;;;;;;;12.73;3.00;;;;;;;6.54;91.08;101390.22;4970222;28;20066;-61
2024/01/31 09:17:03;;;;;;;3.45;1.50;;;;;;;6.59;91.04;101392.88;4969266;28;20062;-61
2024/01/31 09:19:30;;;;;;;7.50;0.90;;;;;;;6.62;90.86;101417.03;4952221;28;20043;-62
2024/01/31 09:21:58;;;;;;;8.82;1.40;;;;;;;6.63;91.27;101426.13;4950448;28;20058;-61
2024/01/31 09:24:25;;;;;;;7.25;0.80;;;;;;;6.63;91.01;101415.94;4969367;28;20038;-61
2024/01/31 09:26:52;;;;;;;10.55;1.48;;;;;;;6.69;91.01;101430.41;4966473;28;20386;-62
2024/01/31 09:29:20;;;;;;;3.53;0.80;;;;;;;6.71;91.16;101422.66;4968673;28;20061;-62
2024/01/31 09:31:47;;;;;;;4.55;1.02;;;;;;;6.74;91.16;101420.13;4969068;28;20050;-62
2024/01/31 09:34:14;;;;;;;1.45;0.60;;;;;;;6.77;91.09;101404.13;4969636;28;20050;-61
2024/01/31 09:36:45;;;;;;;4.10;1.08;;;;;;;6.78;91.11;101390.06;4966704;28;21728;-62
2024/01/31 09:39:14;;;;;;;10.07;1.80;;;;;;;6.79;91.25;101396.38;4969551;28;20505;-61
2024/01/31 09:41:42;;;;;;;11.70;1.65;;;;;;;6.81;91.34;101405.13;4969128;28;20058;-61
2024/01/31 09:44:09;;;;;;;6.00;0.70;;;;;;;6.84;91.42;101377.00;4969530;28;20038;-61
2024/01/31 09:46:39;;;;;;;8.95;1.50;;;;;;;6.85;91.39;101362.16;4951416;28;20050;-62
2024/01/31 09:49:07;;;;;;;9.48;0.80;;;;;;;6.85;91.59;101340.94;4969138;28;20051;-62
2024/01/31 09:51:34;;;;;;;6.68;1.20;;;;;;;6.87;91.55;101354.38;4969686;28;20054;-61
2024/01/31 09:54:07;;;;;;;6.38;1.65;;;;;;;6.90;91.53;101354.59;4969685;28;20606;-60
2024/01/31 09:56:36;;;;;;;5.95;1.23;;;;;;;6.93;91.42;101353.19;4968601;28;20049;-62
2024/01/31 09:59:05;;;;;;;7.47;1.70;;;;;;;6.96;91.67;101358.06;4967922;28;20057;-64
2024/01/31 10:01:33;;;;;;;5.53;1.90;;;;;;;6.97;91.60;101340.41;4968543;28;20046;-61
2024/01/31 10:04:01;;;;;;;11.18;1.13;;;;;;;7.00;91.57;101359.91;4967802;28;20053;-62
2024/01/31 10:06:29;;;;;;;5.00;1.23;;;;;;;7.01;91.65;101350.53;4968770;28;20701;-61
2024/01/31 10:08:57;;;;;;;6.55;1.15;;;;;;;7.04;91.71;101322.38;4968576;28;20118;-62
2024/01/31 10:11:27;;;;;;;2.83;1.45;;;;;;;7.06;91.76;101319.31;4968920;28;20054;-61
2024/01/31 10:13:55;;;;;;;5.25;0.85;;;;;;;7.10;91.87;101309.31;4969214;28;20061;-62
2024/01/31 10:16:24;;;;;;;4.28;1.05;;;;;;;7.13;92.01;101309.50;4968830;28;20055;-62
2024/01/31 10:18:52;;;;;;;7.43;1.10;;;;;;;7.16;92.15;101297.06;4968012;28;20054;-61
2024/01/31 10:21:20;;;;;;;5.78;0.77;;;;;;;7.19;92.11;101282.69;4968534;28;20047;-61
2024/01/31 10:24:00;;;;;;;10.88;1.20;;;;;;;7.22;92.15;101282.06;4968229;28;20879;-63
2024/01/31 10:26:27;;;;;;;6.75;1.25;;;;;;;7.24;92.11;101266.03;4968069;28;20059;-63
2024/01/31 10:28:57;;;;;;;7.20;1.80;;;;;;;7.26;92.30;101263.78;4967640;28;20523;-62
2024/01/31 10:31:37;;;;;;;4.70;0.63;;;;;;;7.29;92.50;101243.91;4968543;28;20058;-62
2024/01/31 10:34:07;;;;;;;4.22;0.88;;;;;;;7.31;92.45;101233.38;4968414;28;20054;-62
2024/01/31 10:36:35;;;;;;;8.57;1.27;;;;;;;7.34;92.37;101244.59;4968121;28;20805;-62
2024/01/31 10:39:09;;;;;;;4.18;0.85;;;;;;;7.39;92.18;101232.63;4968417;28;20049;-62
2024/01/31 10:41:48;;;;;;;8.17;1.87;;;;;;;7.44;92.61;101232.50;4967319;28;20055;-62
2024/01/31 10:44:15;;;;;;;3.90;1.08;;;;;;;7.48;92.59;101219.75;4965699;28;20497;-62
2024/01/31 10:46:46;;;;;;;8.43;2.92;;;;;;;7.51;92.65;101221.88;4967365;28;20047;-62
2024/01/31 10:49:16;;;;;;;5.97;2.33;;;;;;;7.54;92.51;101221.25;4965893;28;20047;-61
2024/01/31 10:51:48;;;;;;;8.88;1.80;;;;;;;7.59;92.43;101190.00;4968343;28;20050;-62
2024/01/31 10:54:21;;;;;;;1.23;0.57;;;;;;;7.63;92.61;101174.44;4967752;28;20050;-62
2024/01/31 10:56:49;;;;;;;7.30;1.15;;;;;;;7.67;92.61;101184.56;4967217;28;20135;-62
2024/01/31 10:59:17;;;;;;;6.10;1.30;;;;;;;7.70;92.57;101178.41;4967523;28;20062;-62
2024/01/31 11:01:59;;;;;;;6.25;1.23;;;;;;;7.75;92.80;101156.22;4967443;28;20051;-61
2024/01/31 11:04:27;;;;;;;6.82;1.45;;;;;;;7.76;92.85;101152.31;4965049;28;20855;-64
2024/01/31 11:06:59;;;;;;;13.00;1.45;;;;;;;7.78;92.76;101160.28;4968018;28;20051;-61
2024/01/31 11:09:28;;;;;;;5.43;1.02;;;;;;;7.80;92.82;101164.38;4967581;28;20051;-62
2024/01/31 11:12:08;;;;;;;2.90;1.10;;;;;;;7.84;92.84;101137.78;4967654;28;20046;-61
2024/01/31 11:14:35;;;;;;;4.07;0.88;;;;;;;7.89;93.02;101118.34;4966733;28;20539;-61
2024/01/31 11:17:11;;;;;;;2.63;0.70;;;;;;;7.94;93.16;101101.66;4967000;28;20055;-62
2024/01/31 11:19:51;;;;;;;9.13;2.92;;;;;;;7.98;93.07;101097.13;4966968;28;20488;-62
2024/01/31 11:22:19;;;;;;;6.20;1.40;;;;;;;8.02;93.08;101088.22;4967692;28;20058;-62
2024/01/31 11:24:52;;;;;;;1.70;1.00;;;;;;;8.04;93.16;101081.25;4967953;28;20123;-62
2024/01/31 11:27:19;;;;;;;3.85;0.73;;;;;;;8.08;93.18;101106.22;4966473;28;20539;-61
2024/01/31 11:29:50;;;;;;;4.32;1.02;;;;;;;8.12;93.19;101112.75;4967033;28;20047;-62
2024/01/31 11:32:19;;;;;;;10.80;2.42;;;;;;;8.13;93.33;101095.88;4967103;28;20047;-61
2024/01/31 11:34:58;;;;;;;6.53;1.10;;;;;;;8.18;93.40;101109.50;4968415;28;20063;-61
2024/01/31 11:37:27;;;;;;;8.27;1.15;;;;;;;8.20;93.35;101096.25;4967545;28;20062;-62